D/T METAR WX W/DIR W/SPE G/SPE TEMP DEWP
23/03/19 12:20 EGKB 231220Z 04009KT 9999 FEW020 BKN035 10/05 Q1032 NE (40°) 10.4mph 10°C 5°C
23/03/19 11:50 EGKB 231150Z 04010KT 9999 FEW020 BKN037 10/05 Q1032 NE (40°) 11.5mph 10°C 5°C
23/03/19 11:20 EGKB 231120Z 01007KT 340V040 9999 BKN036 10/05 Q1032 N (10°) 8.1mph 10°C 5°C
23/03/19 10:50 EGKB 231050Z 01008KT 9999 BKN032 10/05 Q1032 N (10°) 9.2mph 10°C 5°C
23/03/19 10:20 EGKB 231020Z 01007KT 340V040 9999 BKN030 09/05 Q1032 N (10°) 8.1mph 9°C 5°C
23/03/19 09:50 EGKB 230950Z 02008KT 350V050 9999 BKN030 09/05 Q1032 NNE (20°) 9.2mph 9°C 5°C
23/03/19 09:20 EGKB 230920Z 02005KT 9999 FEW012 09/06 Q1032 NNE (20°) 5.8mph 9°C 6°C
23/03/19 08:50 EGKB 230850Z 03005KT 010V070 9999 7000SE FEW010 BKN016 08/07 Q1031 NNE (30°) 5.8mph 8°C 7°C
23/03/19 08:20 EGKB 230820Z 35006KT 320V020 3000 -DZ FEW007 BKN010 08/07 Q1031 -DZ N (350°) 6.9mph 8°C 7°C
22/03/19 22:20 EGKB 222220Z 21005KT 9999 BKN022 08/07 Q1028 SSW (210°) 5.8mph 8°C 7°C
22/03/19 21:50 EGKB 222150Z 22005KT 190V250 9999 BKN022 08/07 Q1028 SW (220°) 5.8mph 8°C 7°C
22/03/19 21:20 EGKB 222120Z 21006KT 9999 BKN022 09/07 Q1028 SSW (210°) 6.9mph 9°C 7°C
22/03/19 20:50 EGKB 222050Z 21003KT 9999 BKN022 09/06 Q1028 SSW (210°) 3.5mph 9°C 6°C
22/03/19 20:20 EGKB 222020Z 27005KT 240V320 9999 BKN014 09/07 Q1028 W (270°) 5.8mph 9°C 7°C
22/03/19 19:50 EGKB 221950Z 26006KT 230V290 9999 BKN014 09/07 Q1028 W (260°) 6.9mph 9°C 7°C
22/03/19 19:20 EGKB 221920Z 26006KT 230V290 9999 BKN014 09/06 Q1028 W (260°) 6.9mph 9°C 6°C
22/03/19 18:50 EGKB 221850Z 24006KT 210V280 9999 BKN011 09/07 Q1028 WSW (240°) 6.9mph 9°C 7°C
22/03/19 18:20 EGKB 221820Z 25006KT 210V280 9000 BKN011 08/06 Q1028 WSW (250°) 6.9mph 8°C 6°C
22/03/19 17:50 EGKB 221750Z 25005KT 220V280 9000 BKN011 08/06 Q1027 WSW (250°) 5.8mph 8°C 6°C
22/03/19 17:20 EGKB 221720Z 21007KT 9000 BKN010 08/06 Q1027 SSW (210°) 8.1mph 8°C 6°C
22/03/19 16:50 EGKB 221650Z 22007KT 200V260 9000 BKN010 08/06 Q1027 SW (220°) 8.1mph 8°C 6°C
22/03/19 16:20 EGKB 221620Z 22007KT 190V250 9000 BKN010 08/06 Q1027 SW (220°) 8.1mph 8°C 6°C
22/03/19 15:50 EGKB 221550Z 23008KT 210V270 9000 BKN009 09/07 Q1027 SW (230°) 9.2mph 9°C 7°C
22/03/19 15:20 EGKB 221520Z 24008KT 190V280 9000 BKN009 08/07 Q1027 WSW (240°) 9.2mph 8°C 7°C
22/03/19 14:20 EGKB 221420Z 21008KT 180V250 8000 BKN010 09/07 Q1027 SSW (210°) 9.2mph 9°C 7°C
22/03/19 13:50 EGKB 221350Z 23007KT 200V260 8000 BKN010 09/07 Q1027 SW (230°) 8.1mph 9°C 7°C
22/03/19 13:20 EGKB 221320Z 22008KT 190V260 8000 BKN009 09/07 Q1028 SW (220°) 9.2mph 9°C 7°C
22/03/19 12:50 EGKB 221250Z 20009KT 7000 BKN009 09/07 Q1028 SSW (200°) 10.4mph 9°C 7°C
22/03/19 12:20 EGKB 221220Z 20009KT 180V240 7000 BKN008 08/07 Q1028 SSW (200°) 10.4mph 8°C 7°C
22/03/19 11:50 EGKB 221150Z 20009KT 7000 BKN008 08/07 Q1028 SSW (200°) 10.4mph 8°C 7°C
22/03/19 11:20 EGKB 221120Z 21006KT 180V250 7000 OVC007 08/07 Q1029 SSW (210°) 6.9mph 8°C 7°C
22/03/19 10:50 EGKB 221050Z 23006KT 170V260 7000 OVC007 08/07 Q1029 SW (230°) 6.9mph 8°C 7°C
22/03/19 10:20 EGKB 221020Z 21010KT 7000 BKN007 08/06 Q1029 SSW (210°) 11.5mph 8°C 6°C
22/03/19 09:50 EGKB 220950Z 20008KT 180V250 6000 BKN007 08/07 Q1029 SSW (200°) 9.2mph 8°C 7°C
22/03/19 09:20 EGKB 220920Z 21007KT 170V250 6000 BKN007 08/06 Q1029 SSW (210°) 8.1mph 8°C 6°C
22/03/19 08:50 EGKB 220850Z 19009KT 6000 BKN007 08/06 Q1029 S (190°) 10.4mph 8°C 6°C
22/03/19 08:20 EGKB 220820Z 21009KT 6000 BKN006 08/06 Q1029 SSW (210°) 10.4mph 8°C 6°C
22/03/19 07:50 EGKB 220750Z 20009KT 6000 BKN006 07/06 Q1029 SSW (200°) 10.4mph 7°C 6°C
22/03/19 07:20 EGKB 220720Z 19009KT 9999 OVC006 07/06 Q1029 S (190°) 10.4mph 7°C 6°C
22/03/19 06:50 EGKB 220650Z 21006KT 170V260 9000 OVC006 07/06 Q1029 SSW (210°) 6.9mph 7°C 6°C
22/03/19 06:20 EGKB 220620Z 21006KT 180V250 9999 OVC006 07/06 Q1029 SSW (210°) 6.9mph 7°C 6°C
21/03/19 22:20 EGKB 212220Z 16004KT 110V190 9999 BKN020 10/08 Q1032 SSE (160°) 4.6mph 10°C 8°C
21/03/19 21:50 EGKB 212150Z 16005KT 9999 BKN020 11/08 Q1032 SSE (160°) 5.8mph 11°C 8°C
21/03/19 21:20 EGKB 212120Z 14004KT 9999 BKN020 11/08 Q1032 SE (140°) 4.6mph 11°C 8°C
21/03/19 20:50 EGKB 212050Z VRB03KT 9999 BKN020 11/08 Q1032 N (0°) 3.5mph 11°C 8°C
21/03/19 20:20 EGKB 212020Z 14004KT 9999 BKN021 11/07 Q1032 SE (140°) 4.6mph 11°C 7°C
21/03/19 19:50 EGKB 211950Z 15004KT 9999 BKN023 11/08 Q1032 SSE (150°) 4.6mph 11°C 8°C
21/03/19 19:20 EGKB 211920Z 16004KT 9999 BKN023 11/08 Q1032 SSE (160°) 4.6mph 11°C 8°C
21/03/19 18:50 EGKB 211850Z VRB03KT 9999 BKN023 11/08 Q1032 N (0°) 3.5mph 11°C 8°C
21/03/19 18:20 EGKB 211820Z VRB01KT 9999 BKN023 11/08 Q1032 N (0°) 1.2mph 11°C 8°C
21/03/19 17:50 EGKB 211750Z VRB01KT 9999 BKN020 12/07 Q1032 N (0°) 1.2mph 12°C 7°C
21/03/19 17:20 EGKB 211720Z 17003KT 9999 BKN020 12/08 Q1032 S (170°) 3.5mph 12°C 8°C
21/03/19 16:50 EGKB 211650Z 18002KT 9999 BKN020 12/08 Q1032 S (180°) 2.3mph 12°C 8°C
21/03/19 16:20 EGKB 211620Z VRB01KT 9999 BKN020 13/08 Q1032 N (0°) 1.2mph 13°C 8°C
21/03/19 15:50 EGKB 211550Z VRB03KT 9999 BKN020 12/08 Q1032 N (0°) 3.5mph 12°C 8°C
21/03/19 15:20 EGKB 211520Z VRB03KT 9999 BKN020 12/08 Q1032 N (0°) 3.5mph 12°C 8°C
21/03/19 14:50 EGKB 211450Z 29004KT 250V340 9999 BKN020 13/08 Q1032 WNW (290°) 4.6mph 13°C 8°C
21/03/19 14:20 EGKB 211420Z 28004KT 210V340 9999 BKN018 12/08 Q1033 W (280°) 4.6mph 12°C 8°C
21/03/19 13:50 EGKB 211350Z 30005KT 270V340 9999 BKN018 12/09 Q1033 WNW (300°) 5.8mph 12°C 9°C
21/03/19 13:20 EGKB 211320Z 30004KT 260V350 9999 BKN015 12/09 Q1033 WNW (300°) 4.6mph 12°C 9°C
21/03/19 12:50 EGKB 211250Z 27004KT 240V330 9999 BKN014 12/09 Q1034 W (270°) 4.6mph 12°C 9°C
21/03/19 12:20 EGKB 211220Z 25004KT 200V290 9999 BKN013 12/09 Q1034 WSW (250°) 4.6mph 12°C 9°C
21/03/19 11:50 EGKB 211150Z VRB03KT 9999 BKN013 11/09 Q1034 N (0°) 3.5mph 11°C 9°C
21/03/19 11:20 EGKB 211120Z 22004KT 170V270 9999 OVC010 11/08 Q1034 SW (220°) 4.6mph 11°C 8°C
21/03/19 10:50 EGKB 211050Z 21005KT 180V240 9999 OVC009 11/09 Q1034 SSW (210°) 5.8mph 11°C 9°C
21/03/19 10:20 EGKB 211020Z 25004KT 200V330 9999 OVC009 10/08 Q1034 WSW (250°) 4.6mph 10°C 8°C
21/03/19 09:50 EGKB 210950Z 24005KT 190V290 9999 OVC009 10/08 Q1034 WSW (240°) 5.8mph 10°C 8°C
21/03/19 09:20 EGKB 210920Z 20006KT 9999 OVC009 10/08 Q1034 SSW (200°) 6.9mph 10°C 8°C
21/03/19 08:50 EGKB 210850Z 21005KT 170V250 9999 OVC009 09/08 Q1034 SSW (210°) 5.8mph 9°C 8°C
21/03/19 08:20 EGKB 210820Z 23004KT 190V270 9000 OVC010 09/08 Q1034 SW (230°) 4.6mph 9°C 8°C
21/03/19 07:50 EGKB 210750Z 21005KT 8000 OVC010 09/08 Q1034 SSW (210°) 5.8mph 9°C 8°C
21/03/19 07:20 EGKB 210720Z VRB03KT 5000 BR OVC010 08/07 Q1033 BR N (0°) 3.5mph 8°C 7°C
21/03/19 06:50 EGKB 210650Z 24004KT 210V290 9000 OVC009 08/07 Q1033 WSW (240°) 4.6mph 8°C 7°C
20/03/19 22:20 EGKB 202220Z 22008KT 190V250 9999 BKN009 09/07 Q1033 SW (220°) 9.2mph 9°C 7°C
20/03/19 21:50 EGKB 202150Z 22007KT 190V250 9999 BKN011 09/07 Q1033 SW (220°) 8.1mph 9°C 7°C
20/03/19 21:20 EGKB 202120Z 22007KT 190V250 9999 BKN012 09/07 Q1033 SW (220°) 8.1mph 9°C 7°C
20/03/19 20:50 EGKB 202050Z 22006KT 190V250 9999 BKN012 09/07 Q1033 SW (220°) 6.9mph 9°C 7°C
20/03/19 20:20 EGKB 202020Z 23007KT 190V260 9999 BKN015 10/07 Q1033 SW (230°) 8.1mph 10°C 7°C
20/03/19 19:50 EGKB 201950Z 23006KT 9999 BKN015 10/07 Q1033 SW (230°) 6.9mph 10°C 7°C
20/03/19 19:20 EGKB 201920Z 22006KT 190V250 9999 BKN015 10/07 Q1033 SW (220°) 6.9mph 10°C 7°C
20/03/19 18:50 EGKB 201850Z 22007KT 9999 BKN015 10/08 Q1033 SW (220°) 8.1mph 10°C 8°C
20/03/19 18:20 EGKB 201820Z 21006KT 9999 BKN016 10/08 Q1033 SSW (210°) 6.9mph 10°C 8°C
20/03/19 17:50 EGKB 201750Z 21008KT 9999 BKN016 11/08 Q1033 SSW (210°) 9.2mph 11°C 8°C
20/03/19 17:20 EGKB 201720Z 21008KT 9999 BKN018 11/08 Q1032 SSW (210°) 9.2mph 11°C 8°C
20/03/19 16:50 EGKB 201650Z 20008KT 9999 BKN015 11/08 Q1032 SSW (200°) 9.2mph 11°C 8°C
20/03/19 16:20 EGKB 201620Z 21007KT 170V230 9999 BKN015 11/09 Q1032 SSW (210°) 8.1mph 11°C 9°C
20/03/19 15:50 EGKB 201550Z 23007KT 190V250 9999 BKN016 11/08 Q1032 SW (230°) 8.1mph 11°C 8°C
20/03/19 15:20 EGKB 201520Z 22007KT 200V260 9999 BKN015 11/08 Q1032 SW (220°) 8.1mph 11°C 8°C
20/03/19 14:50 EGKB 201450Z 22007KT 190V250 9999 BKN015 11/08 Q1033 SW (220°) 8.1mph 11°C 8°C
20/03/19 14:20 EGKB 201420Z 22007KT 190V280 9999 BKN015 11/08 Q1032 SW (220°) 8.1mph 11°C 8°C
20/03/19 13:50 EGKB 201350Z 23006KT 200V260 9999 BKN014 11/08 Q1033 SW (230°) 6.9mph 11°C 8°C
20/03/19 13:20 EGKB 201320Z 22007KT 190V260 9999 BKN014 11/08 Q1033 SW (220°) 8.1mph 11°C 8°C
20/03/19 12:50 EGKB 201250Z 21009KT 190V250 9999 BKN012 11/08 Q1033 SSW (210°) 10.4mph 11°C 8°C
20/03/19 12:20 EGKB 201220Z 21008KT 190V250 9999 BKN010 10/08 Q1033 SSW (210°) 9.2mph 10°C 8°C
20/03/19 11:50 EGKB 201150Z 22007KT 190V250 9999 BKN010 10/08 Q1033 SW (220°) 8.1mph 10°C 8°C
20/03/19 11:20 EGKB 201120Z 23008KT 190V270 9999 BKN010 10/08 Q1033 SW (230°) 9.2mph 10°C 8°C
20/03/19 10:50 EGKB 201050Z 23007KT 190V260 9999 BKN010 10/08 Q1033 SW (230°) 8.1mph 10°C 8°C
20/03/19 10:20 EGKB 201020Z 22007KT 190V260 9999 BKN007 09/08 Q1033 SW (220°) 8.1mph 9°C 8°C
20/03/19 09:50 EGKB 200950Z 24006KT 9999 BKN007 09/08 Q1033 WSW (240°) 6.9mph 9°C 8°C
20/03/19 09:20 EGKB 200920Z 23006KT 200V260 9999 OVC005 08/07 Q1033 SW (230°) 6.9mph 8°C 7°C
20/03/19 08:20 EGKB 200820Z 24008KT 200V280 9999 3000S OVC005 08/07 Q1032 WSW (240°) 9.2mph 8°C 7°C
20/03/19 07:50 EGKB 200750Z 24005KT 200V280 9999 3000S BKN005 08/07 Q1032 WSW (240°) 5.8mph 8°C 7°C
20/03/19 07:20 EGKB 200720Z 25006KT 210V290 9999 3000S BKN005 08/07 Q1032 WSW (250°) 6.9mph 8°C 7°C
20/03/19 06:20 EGKB 200620Z 21004KT 9999 BKN009 07/07 Q1031 SSW (210°) 4.6mph 7°C 7°C
19/03/19 22:20 EGKB 192220Z 22007KT 9999 FEW035 08/07 Q1030 SW (220°) 8.1mph 8°C 7°C
19/03/19 21:50 EGKB 192150Z 21008KT CAVOK 08/07 Q1030 SSW (210°) 9.2mph 8°C 7°C
19/03/19 21:20 EGKB 192120Z 21008KT CAVOK 08/07 Q1030 SSW (210°) 9.2mph 8°C 7°C
19/03/19 20:50 EGKB 192050Z 20008KT CAVOK 08/07 Q1029 SSW (200°) 9.2mph 8°C 7°C
19/03/19 19:50 EGKB 191950Z 21008KT CAVOK 09/07 Q1029 SSW (210°) 9.2mph 9°C 7°C
19/03/19 19:20 EGKB 191920Z 21008KT 9999 FEW044 09/07 Q1029 SSW (210°) 9.2mph 9°C 7°C
19/03/19 18:50 EGKB 191850Z 21009KT 9999 SCT025 BKN040 09/07 Q1029 SSW (210°) 10.4mph 9°C 7°C
19/03/19 18:20 EGKB 191820Z 23008KT 190V260 9999 SCT025 BKN040 09/07 Q1029 SW (230°) 9.2mph 9°C 7°C
19/03/19 17:50 EGKB 191750Z 21010KT 9999 BKN045 09/07 Q1028 SSW (210°) 11.5mph 9°C 7°C
19/03/19 17:20 EGKB 191720Z 21008KT 9999 SCT030 09/07 Q1028 SSW (210°) 9.2mph 9°C 7°C
19/03/19 16:50 EGKB 191650Z 22010KT 9999 BKN036 10/07 Q1028 SW (220°) 11.5mph 10°C 7°C
19/03/19 16:20 EGKB 191620Z 22008KT 9999 BKN040 10/07 Q1028 SW (220°) 9.2mph 10°C 7°C
19/03/19 15:50 EGKB 191550Z 22009KT 190V250 9999 SCT045 11/07 Q1027 SW (220°) 10.4mph 11°C 7°C
19/03/19 15:20 EGKB 191520Z 22008KT 9999 FEW025 11/07 Q1027 SW (220°) 9.2mph 11°C 7°C
19/03/19 14:50 EGKB 191450Z 21009KT 9999 SCT020 11/07 Q1027 SSW (210°) 10.4mph 11°C 7°C
19/03/19 13:50 EGKB 191350Z 23007KT 200V260 9999 SCT023 11/07 Q1027 SW (230°) 8.1mph 11°C 7°C
19/03/19 13:20 EGKB 191320Z 22007KT 190V260 9999 SCT023 11/07 Q1027 SW (220°) 8.1mph 11°C 7°C
19/03/19 12:50 EGKB 191250Z 25004KT 200V320 9999 SCT021 11/07 Q1027 WSW (250°) 4.6mph 11°C 7°C
19/03/19 12:20 EGKB 191220Z 23004KT 190V280 9999 SCT020 10/07 Q1028 SW (230°) 4.6mph 10°C 7°C
19/03/19 11:50 EGKB 191150Z 24005KT 160V290 9999 SCT015 10/07 Q1028 WSW (240°) 5.8mph 10°C 7°C
19/03/19 11:20 EGKB 191120Z 22006KT 190V260 9999 VCSH SCT010 10/08 Q1028 VCSH SW (220°) 6.9mph 10°C 8°C
19/03/19 10:50 EGKB 191050Z 25005KT 210V290 9999 VCSH SCT012 10/07 Q1027 VCSH WSW (250°) 5.8mph 10°C 7°C
19/03/19 10:20 EGKB 191020Z 26005KT 210V320 9999 VCSH BKN012 10/07 Q1027 VCSH W (260°) 5.8mph 10°C 7°C
19/03/19 09:50 EGKB 190950Z 23006KT 180V290 9999 VCSH SCT010 09/07 Q1027 VCSH SW (230°) 6.9mph 9°C 7°C
19/03/19 09:20 EGKB 190920Z 23005KT 190V290 9999 SCT020 09/07 Q1027 SW (230°) 5.8mph 9°C 7°C
19/03/19 08:50 EGKB 190850Z 22005KT 160V260 9000 FEW020 SCT030 08/07 Q1027 SW (220°) 5.8mph 8°C 7°C
19/03/19 08:20 EGKB 190820Z 20004KT 160V240 9999 BKN022 07/07 Q1026 SSW (200°) 4.6mph 7°C 7°C
19/03/19 07:50 EGKB 190750Z 20005KT 2000 -DZ BR BKN025 07/06 Q1026 -DZ BR SSW (200°) 5.8mph 7°C 6°C
19/03/19 07:20 EGKB 190720Z 20004KT 2500 -DZ BR BKN025 06/06 Q1026 -DZ BR SSW (200°) 4.6mph 6°C 6°C
19/03/19 06:20 EGKB 190620Z 21005KT 6000 BKN020 06/05 Q1026 SSW (210°) 5.8mph 6°C 5°C
18/03/19 22:20 EGKB 182220Z 21005KT CAVOK 05/03 Q1024 SSW (210°) 5.8mph 5°C 3°C
18/03/19 21:50 EGKB 182150Z 23005KT CAVOK 05/02 Q1024 SW (230°) 5.8mph 5°C 2°C
18/03/19 21:20 EGKB 182120Z 20006KT CAVOK 05/02 Q1024 SSW (200°) 6.9mph 5°C 2°C
18/03/19 20:50 EGKB 182050Z 21005KT 9999 FEW047 06/02 Q1024 SSW (210°) 5.8mph 6°C 2°C
18/03/19 20:20 EGKB 182020Z 23004KT CAVOK 05/03 Q1023 SW (230°) 4.6mph 5°C 3°C
18/03/19 19:50 EGKB 181950Z 23004KT CAVOK 06/03 Q1023 SW (230°) 4.6mph 6°C 3°C
18/03/19 19:20 EGKB 181920Z 21004KT CAVOK 06/03 Q1023 SSW (210°) 4.6mph 6°C 3°C
18/03/19 18:50 EGKB 181850Z 22004KT CAVOK 06/03 Q1023 SW (220°) 4.6mph 6°C 3°C
18/03/19 18:20 EGKB 181820Z 23004KT 200V260 9999 FEW048 07/03 Q1022 SW (230°) 4.6mph 7°C 3°C
18/03/19 17:50 EGKB 181750Z 26006KT 230V300 9999 FEW030 08/03 Q1022 W (260°) 6.9mph 8°C 3°C